sensor_id;sensor_type;location;lat;lon;timestamp;temperature;humidity
43808;DHT22;29438;50.664;10.098;2023-04-25T00:02:24;6.90;88.00
43808;DHT22;29438;50.664;10.098;2023-04-25T00:04:50;6.90;87.90
43808;DHT22;29438;50.664;10.098;2023-04-25T00:07:16;6.90;87.90
43808;DHT22;29438;50.664;10.098;2023-04-25T00:09:42;6.90;88.10
43808;DHT22;29438;50.664;10.098;2023-04-25T00:12:07;6.80;88.00
43808;DHT22;29438;50.664;10.098;2023-04-25T00:14:33;6.80;87.70
43808;DHT22;29438;50.664;10.098;2023-04-25T00:17:02;6.80;88.00
43808;DHT22;29438;50.664;10.098;2023-04-25T00:19:28;6.80;87.90
43808;DHT22;29438;50.664;10.098;2023-04-25T00:21:56;6.80;87.90
43808;DHT22;29438;50.664;10.098;2023-04-25T00:24:22;6.80;88.10
43808;DHT22;29438;50.664;10.098;2023-04-25T00:26:48;6.70;88.00
43808;DHT22;29438;50.664;10.098;2023-04-25T00:29:13;6.70;88.20
43808;DHT22;29438;50.664;10.098;2023-04-25T00:31:39;6.70;88.40
43808;DHT22;29438;50.664;10.098;2023-04-25T00:34:06;6.70;88.60
43808;DHT22;29438;50.664;10.098;2023-04-25T00:36:32;6.60;88.50
43808;DHT22;29438;50.664;10.098;2023-04-25T00:38:57;6.70;88.70
43808;DHT22;29438;50.664;10.098;2023-04-25T00:41:25;6.70;88.80
43808;DHT22;29438;50.664;10.098;2023-04-25T00:43:51;6.70;88.90
43808;DHT22;29438;50.664;10.098;2023-04-25T00:46:17;6.70;89.10
43808;DHT22;29438;50.664;10.098;2023-04-25T00:48:42;6.70;89.20
43808;DHT22;29438;50.664;10.098;2023-04-25T00:51:09;6.70;89.20
43808;DHT22;29438;50.664;10.098;2023-04-25T00:53:38;6.60;89.20
43808;DHT22;29438;50.664;10.098;2023-04-25T00:56:05;6.60;89.30
43808;DHT22;29438;50.664;10.098;2023-04-25T00:58:31;6.60;89.30
43808;DHT22;29438;50.664;10.098;2023-04-25T01:00:57;6.60;89.40
43808;DHT22;29438;50.664;10.098;2023-04-25T01:03:23;6.60;89.30
43808;DHT22;29438;50.664;10.098;2023-04-25T01:05:50;6.50;89.30
43808;DHT22;29438;50.664;10.098;2023-04-25T01:08:16;6.50;89.20
43808;DHT22;29438;50.664;10.098;2023-04-25T01:10:41;6.40;89.20
43808;DHT22;29438;50.664;10.098;2023-04-25T01:13:07;6.40;89.30
43808;DHT22;29438;50.664;10.098;2023-04-25T01:15:33;6.40;89.50
43808;DHT22;29438;50.664;10.098;2023-04-25T01:17:58;6.40;89.60
43808;DHT22;29438;50.664;10.098;2023-04-25T01:20:26;6.40;89.70
43808;DHT22;29438;50.664;10.098;2023-04-25T01:22:53;6.40;89.60
43808;DHT22;29438;50.664;10.098;2023-04-25T01:25:22;6.30;89.50
43808;DHT22;29438;50.664;10.098;2023-04-25T01:27:48;6.30;89.50
43808;DHT22;29438;50.664;10.098;2023-04-25T01:30:14;6.30;89.70
43808;DHT22;29438;50.664;10.098;2023-04-25T01:32:40;6.30;89.50
43808;DHT22;29438;50.664;10.098;2023-04-25T01:35:08;6.30;88.60
43808;DHT22;29438;50.664;10.098;2023-04-25T01:37:38;6.30;87.80
43808;DHT22;29438;50.664;10.098;2023-04-25T01:40:04;6.30;87.60
43808;DHT22;29438;50.664;10.098;2023-04-25T01:42:31;6.30;87.80
43808;DHT22;29438;50.664;10.098;2023-04-25T01:44:57;6.30;87.70
43808;DHT22;29438;50.664;10.098;2023-04-25T01:47:23;6.30;87.80
43808;DHT22;29438;50.664;10.098;2023-04-25T01:49:48;6.40;88.10
43808;DHT22;29438;50.664;10.098;2023-04-25T01:52:14;6.40;88.30
43808;DHT22;29438;50.664;10.098;2023-04-25T01:54:40;6.40;88.30
43808;DHT22;29438;50.664;10.098;2023-04-25T01:57:09;6.30;88.00
43808;DHT22;29438;50.664;10.098;2023-04-25T01:59:35;6.30;87.40
43808;DHT22;29438;50.664;10.098;2023-04-25T02:02:01;6.30;87.20
43808;DHT22;29438;50.664;10.098;2023-04-25T02:04:29;6.30;87.40
43808;DHT22;29438;50.664;10.098;2023-04-25T02:06:54;6.30;87.40
43808;DHT22;29438;50.664;10.098;2023-04-25T02:09:20;6.30;87.30
43808;DHT22;29438;50.664;10.098;2023-04-25T02:11:46;6.30;87.60
43808;DHT22;29438;50.664;10.098;2023-04-25T02:14:11;6.30;87.80
43808;DHT22;29438;50.664;10.098;2023-04-25T02:16:37;6.20;87.60
43808;DHT22;29438;50.664;10.098;2023-04-25T02:19:02;6.20;87.70
43808;DHT22;29438;50.664;10.098;2023-04-25T02:21:28;6.20;87.80
43808;DHT22;29438;50.664;10.098;2023-04-25T02:23:53;6.20;88.20
43808;DHT22;29438;50.664;10.098;2023-04-25T02:26:19;6.20;88.60
43808;DHT22;29438;50.664;10.098;2023-04-25T02:28:45;6.20;88.60
43808;DHT22;29438;50.664;10.098;2023-04-25T02:31:10;6.10;88.40
43808;DHT22;29438;50.664;10.098;2023-04-25T02:33:36;6.10;88.40
43808;DHT22;29438;50.664;10.098;2023-04-25T02:36:01;5.90;88.30
43808;DHT22;29438;50.664;10.098;2023-04-25T02:38:27;5.90;88.30
43808;DHT22;29438;50.664;10.098;2023-04-25T02:40:52;5.80;88.00
43808;DHT22;29438;50.664;10.098;2023-04-25T02:43:18;5.70;87.80
43808;DHT22;29438;50.664;10.098;2023-04-25T02:45:43;5.70;87.80
43808;DHT22;29438;50.664;10.098;2023-04-25T02:48:09;5.70;87.60
43808;DHT22;29438;50.664;10.098;2023-04-25T02:50:34;5.70;86.90
43808;DHT22;29438;50.664;10.098;2023-04-25T02:53:00;5.70;87.10
43808;DHT22;29438;50.664;10.098;2023-04-25T02:55:25;5.60;86.60
43808;DHT22;29438;50.664;10.098;2023-04-25T02:57:51;5.50;86.60
43808;DHT22;29438;50.664;10.098;2023-04-25T03:00:17;5.50;86.90
43808;DHT22;29438;50.664;10.098;2023-04-25T03:02:42;5.30;86.80
43808;DHT22;29438;50.664;10.098;2023-04-25T03:05:08;5.30;86.30
43808;DHT22;29438;50.664;10.098;2023-04-25T03:07:34;5.20;85.80
43808;DHT22;29438;50.664;10.098;2023-04-25T03:09:59;5.20;85.60
43808;DHT22;29438;50.664;10.098;2023-04-25T03:12:25;5.20;85.30
43808;DHT22;29438;50.664;10.098;2023-04-25T03:14:50;5.10;85.20
43808;DHT22;29438;50.664;10.098;2023-04-25T03:17:16;4.90;85.50
43808;DHT22;29438;50.664;10.098;2023-04-25T03:19:41;4.80;85.70
43808;DHT22;29438;50.664;10.098;2023-04-25T03:22:07;4.70;85.80
43808;DHT22;29438;50.664;10.098;2023-04-25T03:24:32;4.60;86.20
43808;DHT22;29438;50.664;10.098;2023-04-25T03:26:58;4.60;86.10
43808;DHT22;29438;50.664;10.098;2023-04-25T03:29:23;4.70;85.90
43808;DHT22;29438;50.664;10.098;2023-04-25T03:31:51;4.70;85.60
43808;DHT22;29438;50.664;10.098;2023-04-25T03:34:17;4.60;85.70
43808;DHT22;29438;50.664;10.098;2023-04-25T03:36:42;4.60;85.80
43808;DHT22;29438;50.664;10.098;2023-04-25T03:39:08;4.70;85.70
43808;DHT22;29438;50.664;10.098;2023-04-25T03:41:33;4.70;85.40
43808;DHT22;29438;50.664;10.098;2023-04-25T03:43:59;4.70;85.60
43808;DHT22;29438;50.664;10.098;2023-04-25T03:46:24;4.60;85.60
43808;DHT22;29438;50.664;10.098;2023-04-25T03:48:50;4.60;86.00
43808;DHT22;29438;50.664;10.098;2023-04-25T03:51:15;4.60;85.70
43808;DHT22;29438;50.664;10.098;2023-04-25T03:53:41;4.50;85.90
43808;DHT22;29438;50.664;10.098;2023-04-25T03:56:07;4.50;85.90
43808;DHT22;29438;50.664;10.098;2023-04-25T03:58:32;4.60;85.80
43808;DHT22;29438;50.664;10.098;2023-04-25T04:00:58;4.50;85.50
43808;DHT22;29438;50.664;10.098;2023-04-25T04:03:23;4.50;85.50
43808;DHT22;29438;50.664;10.098;2023-04-25T04:05:49;4.50;85.40
43808;DHT22;29438;50.664;10.098;2023-04-25T04:08:15;4.50;85.60
43808;DHT22;29438;50.664;10.098;2023-04-25T04:10:41;4.50;85.60
43808;DHT22;29438;50.664;10.098;2023-04-25T04:13:06;4.50;85.50
43808;DHT22;29438;50.664;10.098;2023-04-25T04:15:32;4.50;85.80
43808;DHT22;29438;50.664;10.098;2023-04-25T04:17:58;4.30;85.80
43808;DHT22;29438;50.664;10.098;2023-04-25T04:20:28;4.30;85.90
43808;DHT22;29438;50.664;10.098;2023-04-25T04:22:54;4.30;85.90
43808;DHT22;29438;50.664;10.098;2023-04-25T04:25:19;4.30;85.90
43808;DHT22;29438;50.664;10.098;2023-04-25T04:27:45;4.20;85.80
43808;DHT22;29438;50.664;10.098;2023-04-25T04:30:11;4.20;85.90
43808;DHT22;29438;50.664;10.098;2023-04-25T04:32:37;4.30;86.00
43808;DHT22;29438;50.664;10.098;2023-04-25T04:35:04;4.40;85.90
43808;DHT22;29438;50.664;10.098;2023-04-25T04:37:29;4.50;86.00
43808;DHT22;29438;50.664;10.098;2023-04-25T04:39:55;5.00;85.60
43808;DHT22;29438;50.664;10.098;2023-04-25T04:42:21;5.10;83.80
43808;DHT22;29438;50.664;10.098;2023-04-25T04:44:46;5.00;83.60
43808;DHT22;29438;50.664;10.098;2023-04-25T04:47:12;5.00;83.60
43808;DHT22;29438;50.664;10.098;2023-04-25T04:49:39;4.90;83.70
43808;DHT22;29438;50.664;10.098;2023-04-25T04:52:05;4.90;83.90
43808;DHT22;29438;50.664;10.098;2023-04-25T04:54:31;4.80;83.70
43808;DHT22;29438;50.664;10.098;2023-04-25T04:56:56;4.90;83.30
43808;DHT22;29438;50.664;10.098;2023-04-25T04:59:22;4.80;83.20
43808;DHT22;29438;50.664;10.098;2023-04-25T05:01:47;4.80;83.20
43808;DHT22;29438;50.664;10.098;2023-04-25T05:04:13;4.70;83.40
43808;DHT22;29438;50.664;10.098;2023-04-25T05:06:38;4.80;83.50
43808;DHT22;29438;50.664;10.098;2023-04-25T05:09:04;5.00;83.30
43808;DHT22;29438;50.664;10.098;2023-04-25T05:11:29;5.10;82.60
43808;DHT22;29438;50.664;10.098;2023-04-25T05:13:55;5.30;82.10
43808;DHT22;29438;50.664;10.098;2023-04-25T05:16:21;5.40;81.60
43808;DHT22;29438;50.664;10.098;2023-04-25T05:18:47;5.40;81.50
43808;DHT22;29438;50.664;10.098;2023-04-25T05:21:12;5.40;81.40
43808;DHT22;29438;50.664;10.098;2023-04-25T05:23:38;5.50;82.20
43808;DHT22;29438;50.664;10.098;2023-04-25T05:26:04;5.40;81.30
43808;DHT22;29438;50.664;10.098;2023-04-25T05:28:29;5.20;82.10
43808;DHT22;29438;50.664;10.098;2023-04-25T05:30:55;5.30;81.80
43808;DHT22;29438;50.664;10.098;2023-04-25T05:33:21;5.50;82.00
43808;DHT22;29438;50.664;10.098;2023-04-25T05:35:46;5.30;81.40
43808;DHT22;29438;50.664;10.098;2023-04-25T05:38:12;5.20;81.70
43808;DHT22;29438;50.664;10.098;2023-04-25T05:40:38;5.40;81.80
43808;DHT22;29438;50.664;10.098;2023-04-25T05:43:03;5.70;81.70
43808;DHT22;29438;50.664;10.098;2023-04-25T05:45:29;6.00;79.40
43808;DHT22;29438;50.664;10.098;2023-04-25T05:47:54;6.30;78.00
43808;DHT22;29438;50.664;10.098;2023-04-25T05:50:20;5.90;78.80
43808;DHT22;29438;50.664;10.098;2023-04-25T05:52:45;5.80;79.40
43808;DHT22;29438;50.664;10.098;2023-04-25T05:55:11;5.30;79.50
43808;DHT22;29438;50.664;10.098;2023-04-25T05:57:36;5.30;80.60
43808;DHT22;29438;50.664;10.098;2023-04-25T06:00:02;5.30;80.40
43808;DHT22;29438;50.664;10.098;2023-04-25T06:02:29;5.20;80.90
43808;DHT22;29438;50.664;10.098;2023-04-25T06:04:54;5.20;81.20
43808;DHT22;29438;50.664;10.098;2023-04-25T06:07:20;5.30;81.30
43808;DHT22;29438;50.664;10.098;2023-04-25T06:09:45;5.20;81.20
43808;DHT22;29438;50.664;10.098;2023-04-25T06:12:11;5.30;81.20
43808;DHT22;29438;50.664;10.098;2023-04-25T06:14:37;5.50;81.00
43808;DHT22;29438;50.664;10.098;2023-04-25T06:17:03;6.10;80.40
43808;DHT22;29438;50.664;10.098;2023-04-25T06:19:32;6.40;79.40
43808;DHT22;29438;50.664;10.098;2023-04-25T06:21:58;6.40;78.20
43808;DHT22;29438;50.664;10.098;2023-04-25T06:24:23;6.40;78.40
43808;DHT22;29438;50.664;10.098;2023-04-25T06:26:49;6.60;78.10
43808;DHT22;29438;50.664;10.098;2023-04-25T06:29:14;6.90;78.50
43808;DHT22;29438;50.664;10.098;2023-04-25T06:31:40;7.10;77.50
43808;DHT22;29438;50.664;10.098;2023-04-25T06:34:05;7.10;77.70
43808;DHT22;29438;50.664;10.098;2023-04-25T06:36:31;6.80;76.90
43808;DHT22;29438;50.664;10.098;2023-04-25T06:38:56;6.80;77.90
43808;DHT22;29438;50.664;10.098;2023-04-25T06:41:22;7.00;77.70
43808;DHT22;29438;50.664;10.098;2023-04-25T06:43:47;7.10;77.40
43808;DHT22;29438;50.664;10.098;2023-04-25T06:46:13;7.20;76.70
43808;DHT22;29438;50.664;10.098;2023-04-25T06:48:38;7.20;76.80
43808;DHT22;29438;50.664;10.098;2023-04-25T06:51:04;7.10;76.80
43808;DHT22;29438;50.664;10.098;2023-04-25T06:53:30;7.20;76.60
43808;DHT22;29438;50.664;10.098;2023-04-25T06:55:55;6.90;76.30
43808;DHT22;29438;50.664;10.098;2023-04-25T06:58:21;6.90;76.40
43808;DHT22;29438;50.664;10.098;2023-04-25T07:00:46;6.80;76.90
43808;DHT22;29438;50.664;10.098;2023-04-25T07:03:12;7.20;77.50
43808;DHT22;29438;50.664;10.098;2023-04-25T07:05:37;7.20;75.80
43808;DHT22;29438;50.664;10.098;2023-04-25T07:08:03;7.30;76.20
43808;DHT22;29438;50.664;10.098;2023-04-25T07:10:29;7.30;75.80
43808;DHT22;29438;50.664;10.098;2023-04-25T07:12:54;7.10;75.50
43808;DHT22;29438;50.664;10.098;2023-04-25T07:15:20;6.90;77.60
43808;DHT22;29438;50.664;10.098;2023-04-25T07:17:45;6.90;77.30
43808;DHT22;29438;50.664;10.098;2023-04-25T07:20:11;7.10;76.70
43808;DHT22;29438;50.664;10.098;2023-04-25T07:22:37;7.00;77.10
43808;DHT22;29438;50.664;10.098;2023-04-25T07:25:02;7.00;76.90
43808;DHT22;29438;50.664;10.098;2023-04-25T07:27:29;7.10;77.70
43808;DHT22;29438;50.664;10.098;2023-04-25T07:29:55;7.00;77.60
43808;DHT22;29438;50.664;10.098;2023-04-25T07:32:20;6.80;77.60
43808;DHT22;29438;50.664;10.098;2023-04-25T07:34:46;7.00;78.50
43808;DHT22;29438;50.664;10.098;2023-04-25T07:37:12;7.00;77.90
43808;DHT22;29438;50.664;10.098;2023-04-25T07:39:37;7.10;77.60
43808;DHT22;29438;50.664;10.098;2023-04-25T07:42:03;7.10;77.40
43808;DHT22;29438;50.664;10.098;2023-04-25T07:44:29;7.20;77.50
43808;DHT22;29438;50.664;10.098;2023-04-25T07:46:56;7.10;77.70
43808;DHT22;29438;50.664;10.098;2023-04-25T07:49:22;7.00;78.50
43808;DHT22;29438;50.664;10.098;2023-04-25T07:51:48;6.90;77.90
43808;DHT22;29438;50.664;10.098;2023-04-25T07:54:14;6.70;78.70
43808;DHT22;29438;50.664;10.098;2023-04-25T07:56:41;6.90;78.80
43808;DHT22;29438;50.664;10.098;2023-04-25T07:59:06;6.70;78.10
43808;DHT22;29438;50.664;10.098;2023-04-25T08:01:33;6.50;79.10
43808;DHT22;29438;50.664;10.098;2023-04-25T08:03:58;6.50;79.90
43808;DHT22;29438;50.664;10.098;2023-04-25T08:06:24;6.40;80.40
43808;DHT22;29438;50.664;10.098;2023-04-25T08:08:50;6.30;80.10
43808;DHT22;29438;50.664;10.098;2023-04-25T08:11:16;6.30;80.20
43808;DHT22;29438;50.664;10.098;2023-04-25T08:13:41;6.40;80.60
43808;DHT22;29438;50.664;10.098;2023-04-25T08:16:07;6.30;80.60
43808;DHT22;29438;50.664;10.098;2023-04-25T08:18:32;6.40;80.40
43808;DHT22;29438;50.664;10.098;2023-04-25T08:20:58;6.30;80.60
43808;DHT22;29438;50.664;10.098;2023-04-25T08:23:23;6.30;81.20
43808;DHT22;29438;50.664;10.098;2023-04-25T08:25:49;6.40;81.00
43808;DHT22;29438;50.664;10.098;2023-04-25T08:28:14;6.70;80.90
43808;DHT22;29438;50.664;10.098;2023-04-25T08:30:40;6.70;80.10
43808;DHT22;29438;50.664;10.098;2023-04-25T08:33:06;6.70;80.40
43808;DHT22;29438;50.664;10.098;2023-04-25T08:35:31;6.70;80.60
43808;DHT22;29438;50.664;10.098;2023-04-25T08:37:58;6.70;80.60
43808;DHT22;29438;50.664;10.098;2023-04-25T08:40:27;6.50;81.10
43808;DHT22;29438;50.664;10.098;2023-04-25T08:42:56;6.70;81.40
43808;DHT22;29438;50.664;10.098;2023-04-25T08:45:22;6.60;80.70
43808;DHT22;29438;50.664;10.098;2023-04-25T08:47:48;6.50;81.20
43808;DHT22;29438;50.664;10.098;2023-04-25T08:50:17;6.50;82.90
43808;DHT22;29438;50.664;10.098;2023-04-25T08:52:45;6.50;81.60
43808;DHT22;29438;50.664;10.098;2023-04-25T08:55:13;6.70;82.10
43808;DHT22;29438;50.664;10.098;2023-04-25T08:57:42;7.10;81.60
43808;DHT22;29438;50.664;10.098;2023-04-25T09:00:10;7.50;80.20
43808;DHT22;29438;50.664;10.098;2023-04-25T09:02:37;7.70;79.30
43808;DHT22;29438;50.664;10.098;2023-04-25T09:05:03;8.20;79.20
43808;DHT22;29438;50.664;10.098;2023-04-25T09:07:30;8.40;77.60
43808;DHT22;29438;50.664;10.098;2023-04-25T09:09:55;9.30;75.90
43808;DHT22;29438;50.664;10.098;2023-04-25T09:12:21;10.10;73.10
43808;DHT22;29438;50.664;10.098;2023-04-25T09:15:08;11.10;69.60
43808;DHT22;29438;50.664;10.098;2023-04-25T09:17:34;11.90;66.90
43808;DHT22;29438;50.664;10.098;2023-04-25T09:20:11;11.90;64.10
43808;DHT22;29438;50.664;10.098;2023-04-25T09:22:38;11.90;65.90
43808;DHT22;29438;50.664;10.098;2023-04-25T09:25:08;11.90;64.80
43808;DHT22;29438;50.664;10.098;2023-04-25T09:27:34;11.80;66.40
43808;DHT22;29438;50.664;10.098;2023-04-25T09:30:01;11.40;61.20
43808;DHT22;29438;50.664;10.098;2023-04-25T09:32:26;11.10;63.50
43808;DHT22;29438;50.664;10.098;2023-04-25T09:34:54;10.80;64.10
43808;DHT22;29438;50.664;10.098;2023-04-25T09:37:29;10.80;64.10
43808;DHT22;29438;50.664;10.098;2023-04-25T09:39:57;11.10;64.20
43808;DHT22;29438;50.664;10.098;2023-04-25T09:42:26;10.80;63.50
43808;DHT22;29438;50.664;10.098;2023-04-25T09:44:54;10.10;65.30
43808;DHT22;29438;50.664;10.098;2023-04-25T09:47:20;9.90;65.80
43808;DHT22;29438;50.664;10.098;2023-04-25T09:49:48;9.80;66.80
43808;DHT22;29438;50.664;10.098;2023-04-25T09:52:19;9.70;67.40
43808;DHT22;29438;50.664;10.098;2023-04-25T09:54:46;10.10;63.60
43808;DHT22;29438;50.664;10.098;2023-04-25T09:57:22;10.20;62.70
43808;DHT22;29438;50.664;10.098;2023-04-25T09:59:53;10.90;60.60
43808;DHT22;29438;50.664;10.098;2023-04-25T10:02:23;12.30;58.80
43808;DHT22;29438;50.664;10.098;2023-04-25T10:04:51;12.10;63.60
43808;DHT22;29438;50.664;10.098;2023-04-25T10:07:18;10.80;62.20
43808;DHT22;29438;50.664;10.098;2023-04-25T10:09:47;10.20;65.70
43808;DHT22;29438;50.664;10.098;2023-04-25T10:12:14;9.30;66.10
43808;DHT22;29438;50.664;10.098;2023-04-25T10:14:41;8.70;66.90
43808;DHT22;29438;50.664;10.098;2023-04-25T10:17:10;8.50;68.50
43808;DHT22;29438;50.664;10.098;2023-04-25T10:19:35;8.70;71.90
43808;DHT22;29438;50.664;10.098;2023-04-25T10:24:35;9.50;66.00
43808;DHT22;29438;50.664;10.098;2023-04-25T10:27:02;9.70;66.10
43808;DHT22;29438;50.664;10.098;2023-04-25T10:29:28;9.90;66.00
43808;DHT22;29438;50.664;10.098;2023-04-25T10:31:54;10.10;63.80
43808;DHT22;29438;50.664;10.098;2023-04-25T10:34:24;10.20;62.40
43808;DHT22;29438;50.664;10.098;2023-04-25T10:36:51;10.00;63.00
43808;DHT22;29438;50.664;10.098;2023-04-25T10:39:25;10.20;62.10
43808;DHT22;29438;50.664;10.098;2023-04-25T10:41:58;10.10;60.80
43808;DHT22;29438;50.664;10.098;2023-04-25T10:44:30;9.80;62.60
43808;DHT22;29438;50.664;10.098;2023-04-25T10:47:01;9.60;61.90
43808;DHT22;29438;50.664;10.098;2023-04-25T10:49:31;9.70;63.20
43808;DHT22;29438;50.664;10.098;2023-04-25T10:55:02;8.90;65.90
43808;DHT22;29438;50.664;10.098;2023-04-25T11:00:08;8.60;66.20
43808;DHT22;29438;50.664;10.098;2023-04-25T11:05:12;8.60;66.80
43808;DHT22;29438;50.664;10.098;2023-04-25T11:07:49;8.50;66.10
43808;DHT22;29438;50.664;10.098;2023-04-25T11:10:15;8.30;66.60
43808;DHT22;29438;50.664;10.098;2023-04-25T11:12:41;8.10;66.70
43808;DHT22;29438;50.664;10.098;2023-04-25T11:15:07;8.20;67.00
43808;DHT22;29438;50.664;10.098;2023-04-25T11:17:33;8.20;67.20
43808;DHT22;29438;50.664;10.098;2023-04-25T11:19:59;8.10;66.30
43808;DHT22;29438;50.664;10.098;2023-04-25T11:22:26;8.20;66.60
43808;DHT22;29438;50.664;10.098;2023-04-25T11:24:52;8.60;65.80
43808;DHT22;29438;50.664;10.098;2023-04-25T11:27:18;9.10;64.20
43808;DHT22;29438;50.664;10.098;2023-04-25T11:29:43;9.30;63.10
43808;DHT22;29438;50.664;10.098;2023-04-25T11:32:09;9.70;61.30
43808;DHT22;29438;50.664;10.098;2023-04-25T11:34:35;10.00;59.40
43808;DHT22;29438;50.664;10.098;2023-04-25T11:37:01;10.10;60.20
43808;DHT22;29438;50.664;10.098;2023-04-25T11:39:28;9.70;58.80
43808;DHT22;29438;50.664;10.098;2023-04-25T11:41:54;9.90;60.30
43808;DHT22;29438;50.664;10.098;2023-04-25T11:44:20;10.30;58.30
43808;DHT22;29438;50.664;10.098;2023-04-25T11:46:46;10.70;58.30
43808;DHT22;29438;50.664;10.098;2023-04-25T11:49:15;11.00;57.30
43808;DHT22;29438;50.664;10.098;2023-04-25T11:51:46;10.80;56.40
43808;DHT22;29438;50.664;10.098;2023-04-25T11:54:12;10.70;59.90
43808;DHT22;29438;50.664;10.098;2023-04-25T11:56:41;10.50;58.80
43808;DHT22;29438;50.664;10.098;2023-04-25T11:59:07;10.30;59.50
43808;DHT22;29438;50.664;10.098;2023-04-25T12:01:34;9.70;59.30
43808;DHT22;29438;50.664;10.098;2023-04-25T12:04:15;8.80;62.70
43808;DHT22;29438;50.664;10.098;2023-04-25T12:06:42;8.70;62.20
43808;DHT22;29438;50.664;10.098;2023-04-25T12:09:12;8.60;63.50
43808;DHT22;29438;50.664;10.098;2023-04-25T12:12:01;8.50;63.40
43808;DHT22;29438;50.664;10.098;2023-04-25T12:14:32;8.50;61.70
43808;DHT22;29438;50.664;10.098;2023-04-25T12:17:01;8.70;61.70
43808;DHT22;29438;50.664;10.098;2023-04-25T12:19:34;9.20;59.60
43808;DHT22;29438;50.664;10.098;2023-04-25T12:22:01;9.10;58.30
43808;DHT22;29438;50.664;10.098;2023-04-25T12:24:28;9.20;57.70
43808;DHT22;29438;50.664;10.098;2023-04-25T12:27:03;9.50;56.60
43808;DHT22;29438;50.664;10.098;2023-04-25T12:29:31;9.30;55.90
43808;DHT22;29438;50.664;10.098;2023-04-25T12:31:57;9.30;55.70
43808;DHT22;29438;50.664;10.098;2023-04-25T12:34:23;9.30;55.70
43808;DHT22;29438;50.664;10.098;2023-04-25T12:36:51;9.40;55.30
43808;DHT22;29438;50.664;10.098;2023-04-25T12:39:18;9.70;56.90
43808;DHT22;29438;50.664;10.098;2023-04-25T12:41:45;9.90;55.10
43808;DHT22;29438;50.664;10.098;2023-04-25T12:44:11;10.10;55.90
43808;DHT22;29438;50.664;10.098;2023-04-25T12:46:37;10.70;55.30
43808;DHT22;29438;50.664;10.098;2023-04-25T12:49:03;11.50;52.70
43808;DHT22;29438;50.664;10.098;2023-04-25T12:51:29;11.70;50.50
43808;DHT22;29438;50.664;10.098;2023-04-25T12:53:55;11.40;50.80
43808;DHT22;29438;50.664;10.098;2023-04-25T12:56:20;12.20;51.00
43808;DHT22;29438;50.664;10.098;2023-04-25T12:58:46;12.20;51.90
43808;DHT22;29438;50.664;10.098;2023-04-25T13:01:13;11.60;50.60
43808;DHT22;29438;50.664;10.098;2023-04-25T13:03:39;11.20;51.50
43808;DHT22;29438;50.664;10.098;2023-04-25T13:06:06;10.60;53.10
43808;DHT22;29438;50.664;10.098;2023-04-25T13:08:32;10.70;54.30
43808;DHT22;29438;50.664;10.098;2023-04-25T13:10:57;10.90;51.60
43808;DHT22;29438;50.664;10.098;2023-04-25T13:13:23;11.30;54.10
43808;DHT22;29438;50.664;10.098;2023-04-25T13:15:48;11.40;50.00
43808;DHT22;29438;50.664;10.098;2023-04-25T13:18:14;11.80;48.50
43808;DHT22;29438;50.664;10.098;2023-04-25T13:20:40;11.20;47.00
43808;DHT22;29438;50.664;10.098;2023-04-25T13:23:05;11.20;47.50
43808;DHT22;29438;50.664;10.098;2023-04-25T13:25:31;12.20;51.50
43808;DHT22;29438;50.664;10.098;2023-04-25T13:27:56;12.00;47.20
43808;DHT22;29438;50.664;10.098;2023-04-25T13:30:22;11.70;48.00
43808;DHT22;29438;50.664;10.098;2023-04-25T13:32:47;11.30;51.90
43808;DHT22;29438;50.664;10.098;2023-04-25T13:35:13;10.90;51.60
43808;DHT22;29438;50.664;10.098;2023-04-25T13:37:39;10.60;51.50
43808;DHT22;29438;50.664;10.098;2023-04-25T13:40:07;10.30;52.70
43808;DHT22;29438;50.664;10.098;2023-04-25T13:42:38;9.60;54.90
43808;DHT22;29438;50.664;10.098;2023-04-25T13:45:04;10.00;51.90
43808;DHT22;29438;50.664;10.098;2023-04-25T13:47:30;9.60;52.10
43808;DHT22;29438;50.664;10.098;2023-04-25T13:49:56;9.70;52.90
43808;DHT22;29438;50.664;10.098;2023-04-25T13:52:22;9.50;52.70
43808;DHT22;29438;50.664;10.098;2023-04-25T13:54:49;9.40;52.10
43808;DHT22;29438;50.664;10.098;2023-04-25T13:57:15;9.40;53.70
43808;DHT22;29438;50.664;10.098;2023-04-25T13:59:41;9.70;54.80
43808;DHT22;29438;50.664;10.098;2023-04-25T14:02:06;9.70;54.70
43808;DHT22;29438;50.664;10.098;2023-04-25T14:04:33;9.80;52.60
43808;DHT22;29438;50.664;10.098;2023-04-25T14:06:58;9.80;51.40
43808;DHT22;29438;50.664;10.098;2023-04-25T14:09:24;9.90;53.80
43808;DHT22;29438;50.664;10.098;2023-04-25T14:11:54;9.80;54.20
43808;DHT22;29438;50.664;10.098;2023-04-25T14:14:21;9.80;52.90
43808;DHT22;29438;50.664;10.098;2023-04-25T14:16:47;9.60;54.30
43808;DHT22;29438;50.664;10.098;2023-04-25T14:19:17;10.30;56.10
43808;DHT22;29438;50.664;10.098;2023-04-25T14:21:43;10.80;51.30
43808;DHT22;29438;50.664;10.098;2023-04-25T14:24:09;10.70;51.70
43808;DHT22;29438;50.664;10.098;2023-04-25T14:26:36;10.50;52.30
43808;DHT22;29438;50.664;10.098;2023-04-25T14:29:03;10.10;52.70
43808;DHT22;29438;50.664;10.098;2023-04-25T14:31:28;9.90;52.10
43808;DHT22;29438;50.664;10.098;2023-04-25T14:33:54;9.50;53.60
43808;DHT22;29438;50.664;10.098;2023-04-25T14:36:19;9.20;54.80
43808;DHT22;29438;50.664;10.098;2023-04-25T14:38:45;9.10;55.80
43808;DHT22;29438;50.664;10.098;2023-04-25T14:41:11;9.10;55.00
43808;DHT22;29438;50.664;10.098;2023-04-25T14:43:36;9.10;55.50
43808;DHT22;29438;50.664;10.098;2023-04-25T14:46:02;9.20;54.60
43808;DHT22;29438;50.664;10.098;2023-04-25T14:48:29;9.20;55.00
43808;DHT22;29438;50.664;10.098;2023-04-25T14:50:54;9.00;53.10
43808;DHT22;29438;50.664;10.098;2023-04-25T14:53:22;8.90;52.60
43808;DHT22;29438;50.664;10.098;2023-04-25T14:55:47;8.50;53.90
43808;DHT22;29438;50.664;10.098;2023-04-25T14:58:14;8.60;53.40
43808;DHT22;29438;50.664;10.098;2023-04-25T15:00:39;8.70;53.20
43808;DHT22;29438;50.664;10.098;2023-04-25T15:03:05;8.90;54.40
43808;DHT22;29438;50.664;10.098;2023-04-25T15:05:33;8.80;52.80
43808;DHT22;29438;50.664;10.098;2023-04-25T15:07:59;8.90;53.10
43808;DHT22;29438;50.664;10.098;2023-04-25T15:10:24;9.20;51.90
43808;DHT22;29438;50.664;10.098;2023-04-25T15:12:49;9.20;53.00
43808;DHT22;29438;50.664;10.098;2023-04-25T15:15:15;9.00;51.90
43808;DHT22;29438;50.664;10.098;2023-04-25T15:17:41;8.80;53.50
43808;DHT22;29438;50.664;10.098;2023-04-25T15:20:09;8.90;54.80
43808;DHT22;29438;50.664;10.098;2023-04-25T15:22:39;9.10;54.00
43808;DHT22;29438;50.664;10.098;2023-04-25T15:25:06;9.30;52.60
43808;DHT22;29438;50.664;10.098;2023-04-25T15:27:33;9.20;52.60
43808;DHT22;29438;50.664;10.098;2023-04-25T15:29:59;8.80;53.00
43808;DHT22;29438;50.664;10.098;2023-04-25T15:32:25;8.60;54.40
43808;DHT22;29438;50.664;10.098;2023-04-25T15:34:51;8.70;54.40